Time;durP1;ratioP1;P1;durP2;ratioP2;P2;SDS_P1;SDS_P2;PMS_P1;PMS_P2;Temp;Humidity;BMP_temperature;BMP_pressure;BME280_temperature;BME280_humidity;BME280_pressure;Samples;Min_cycle;Max_cycle;Signal;HPM_P1;HPM_P2
2021/11/21 00:00:55;;;;;;;12.30;7.38;;;3.80;99.90;;;;;;4894893;29;20135;-75
2021/11/21 06:00:53;;;;;;;8.90;5.00;;;2.20;99.90;;;;;;5618533;23;20611;-79
2021/11/21 06:03:20;;;;;;;8.30;4.93;;;2.20;99.90;;;;;;4954578;29;20122;-78
2021/11/21 06:05:47;;;;;;;8.65;5.05;;;2.20;99.90;;;;;;4954345;29;20134;-81
2021/11/21 06:08:14;;;;;;;8.10;4.80;;;2.20;99.90;;;;;;4954132;29;20059;-79
2021/11/21 06:10:42;;;;;;;8.50;5.15;;;2.20;99.90;;;;;;4949965;29;20135;-79
2021/11/21 06:13:09;;;;;;;9.02;5.15;;;2.20;99.90;;;;;;4943499;29;20051;-79
2021/11/21 06:15:37;;;;;;;8.80;5.28;;;2.20;99.90;;;;;;4950793;29;20526;-79
2021/11/21 06:18:05;;;;;;;8.05;5.15;;;2.20;99.90;;;;;;4935673;29;20412;-78
2021/11/21 06:20:33;;;;;;;7.80;4.60;;;2.20;99.90;;;;;;4938067;29;20048;-79
2021/11/21 06:23:00;;;;;;;7.07;4.50;;;2.20;99.90;;;;;;4938297;29;20056;-78
2021/11/21 06:25:27;;;;;;;8.50;5.00;;;2.20;99.90;;;;;;4952258;29;20047;-79
2021/11/21 06:27:54;;;;;;;7.43;4.32;;;2.20;99.90;;;;;;4957376;28;20062;-79
2021/11/21 06:30:21;;;;;;;7.90;4.20;;;2.20;99.90;;;;;;4957279;29;20051;-79
2021/11/21 06:32:48;;;;;;;7.82;4.68;;;2.10;99.90;;;;;;4942315;29;20047;-79
2021/11/21 06:35:17;;;;;;;7.30;4.40;;;2.20;99.90;;;;;;4938532;29;20055;-79
2021/11/21 06:37:45;;;;;;;8.73;5.22;;;2.10;99.90;;;;;;4938479;29;20138;-78
2021/11/21 06:40:13;;;;;;;8.20;4.78;;;2.10;99.90;;;;;;4955881;28;20479;-80
2021/11/21 06:42:42;;;;;;;7.63;4.40;;;2.00;99.90;;;;;;4944096;29;20068;-79
2021/11/21 06:45:10;;;;;;;9.23;5.20;;;2.10;99.90;;;;;;4939441;29;20048;-79
2021/11/21 06:47:37;;;;;;;8.13;5.00;;;2.10;99.90;;;;;;4942886;29;20048;-79
2021/11/21 06:50:08;;;;;;;8.52;4.95;;;2.10;99.90;;;;;;4951783;29;20129;-79
2021/11/21 06:52:36;;;;;;;8.85;5.10;;;2.10;99.90;;;;;;4943335;28;20138;-78
2021/11/21 06:55:06;;;;;;;10.05;5.30;;;2.20;99.90;;;;;;4956673;29;20130;-77
2021/11/21 06:57:34;;;;;;;8.77;5.22;;;2.20;99.90;;;;;;4956184;29;20606;-78
2021/11/21 07:00:01;;;;;;;8.35;4.90;;;2.30;99.90;;;;;;4950971;29;20139;-79
2021/11/21 07:02:28;;;;;;;9.52;4.97;;;2.30;99.90;;;;;;4937697;29;20069;-78
2021/11/21 07:04:55;;;;;;;7.28;4.50;;;2.30;99.90;;;;;;4945665;29;20054;-82
2021/11/21 07:07:22;;;;;;;8.00;4.90;;;2.40;99.90;;;;;;4948627;28;20342;-78
2021/11/21 07:09:51;;;;;;;6.50;4.30;;;2.50;99.90;;;;;;4955811;29;20054;-79
2021/11/21 07:12:18;;;;;;;8.90;5.30;;;2.50;99.90;;;;;;4955885;28;20078;-79
2021/11/21 07:14:45;;;;;;;8.73;4.97;;;2.50;99.90;;;;;;4955982;29;20047;-78
2021/11/21 07:17:12;;;;;;;8.93;5.18;;;2.60;99.90;;;;;;4951716;29;20127;-79
2021/11/21 07:19:39;;;;;;;7.43;4.45;;;2.60;99.90;;;;;;4938247;29;20054;-79
2021/11/21 07:22:06;;;;;;;8.45;5.35;;;2.70;99.90;;;;;;4950801;29;20055;-80
2021/11/21 07:24:33;;;;;;;8.65;5.43;;;2.70;99.90;;;;;;4954898;29;20479;-81
2021/11/21 07:27:02;;;;;;;8.65;5.43;;;2.70;99.90;;;;;;4953943;29;20504;-79
2021/11/21 07:29:29;;;;;;;8.65;5.40;;;2.70;99.90;;;;;;4935873;29;20048;-79
2021/11/21 07:31:58;;;;;;;8.98;5.40;;;2.80;99.90;;;;;;4936208;29;20052;-78
2021/11/21 07:34:26;;;;;;;9.05;5.30;;;2.70;99.90;;;;;;4935574;29;20056;-81
2021/11/21 07:36:53;;;;;;;9.25;5.15;;;2.80;99.90;;;;;;4935649;29;20083;-81
2021/11/21 07:39:21;;;;;;;9.43;5.60;;;2.80;99.90;;;;;;4953084;28;20090;-77
2021/11/21 07:41:48;;;;;;;10.02;5.35;;;2.80;99.90;;;;;;4951870;28;20486;-80
2021/11/21 07:44:16;;;;;;;8.80;5.10;;;2.90;99.90;;;;;;4955150;28;20078;-78
2021/11/21 07:46:44;;;;;;;8.98;5.22;;;2.90;99.90;;;;;;4954916;28;20054;-79
2021/11/21 07:49:11;;;;;;;8.90;4.68;;;3.00;99.90;;;;;;4952474;28;20085;-79
2021/11/21 07:51:38;;;;;;;8.90;5.30;;;2.90;99.90;;;;;;4954852;29;20055;-80
2021/11/21 07:54:05;;;;;;;8.27;5.10;;;3.00;99.90;;;;;;4953939;29;20043;-79
2021/11/21 07:56:32;;;;;;;8.25;5.10;;;3.00;99.90;;;;;;4936268;29;20086;-77
2021/11/21 07:58:59;;;;;;;8.23;4.82;;;3.00;99.90;;;;;;4953964;29;20047;-78
2021/11/21 08:01:28;;;;;;;8.43;4.82;;;3.00;99.90;;;;;;4954063;29;20425;-80
2021/11/21 08:03:55;;;;;;;8.55;5.03;;;3.10;99.90;;;;;;4950628;29;20476;-79
2021/11/21 08:06:22;;;;;;;8.07;5.00;;;3.10;99.90;;;;;;4952705;28;20043;-78
2021/11/21 08:08:49;;;;;;;8.63;5.20;;;3.10;99.90;;;;;;4954015;28;20511;-82
2021/11/21 08:11:16;;;;;;;8.10;4.93;;;3.10;99.90;;;;;;4955846;29;20058;-84
2021/11/21 08:13:43;;;;;;;9.10;5.47;;;3.10;99.90;;;;;;4960288;28;20525;-85
2021/11/21 08:16:10;;;;;;;9.05;5.38;;;3.10;99.90;;;;;;4943632;29;20061;-83
2021/11/21 08:18:38;;;;;;;10.45;5.72;;;3.20;99.90;;;;;;4953826;29;20511;-83
2021/11/21 08:21:05;;;;;;;10.57;6.10;;;3.20;99.90;;;;;;4955679;28;20137;-82
2021/11/21 08:23:32;;;;;;;10.38;6.00;;;3.20;99.90;;;;;;4955450;28;20098;-82
2021/11/21 08:25:59;;;;;;;10.45;6.38;;;3.30;99.90;;;;;;4954579;28;20047;-82
2021/11/21 08:28:26;;;;;;;10.07;6.15;;;3.30;99.90;;;;;;4955540;29;20051;-83
2021/11/21 08:30:54;;;;;;;9.63;5.50;;;3.30;99.90;;;;;;4955097;29;20054;-82
2021/11/21 08:33:21;;;;;;;10.25;5.85;;;3.30;99.90;;;;;;4945768;28;20062;-80
2021/11/21 08:35:52;;;;;;;8.60;5.10;;;3.40;99.90;;;;;;4937651;29;20052;-79
2021/11/21 08:38:19;;;;;;;7.90;5.05;;;3.40;99.90;;;;;;4949061;28;20094;-79
2021/11/21 08:40:46;;;;;;;8.52;4.97;;;3.40;99.90;;;;;;4941606;29;20051;-80
2021/11/21 08:43:13;;;;;;;9.48;5.40;;;3.50;99.90;;;;;;4951595;28;20145;-79
2021/11/21 08:45:41;;;;;;;8.75;5.28;;;3.50;99.90;;;;;;4934757;29;20058;-77
2021/11/21 08:48:08;;;;;;;8.80;5.28;;;3.50;99.90;;;;;;4949745;28;20066;-79
2021/11/21 08:50:36;;;;;;;7.97;5.10;;;3.50;99.90;;;;;;4951080;28;20139;-77
2021/11/21 08:53:05;;;;;;;8.88;5.07;;;3.50;99.90;;;;;;4952594;28;20047;-77
2021/11/21 08:55:32;;;;;;;8.02;4.90;;;3.60;99.90;;;;;;4952253;28;20130;-75
2021/11/21 08:57:59;;;;;;;8.52;4.88;;;3.50;99.90;;;;;;4947127;28;20065;-78
2021/11/21 09:00:26;;;;;;;8.43;4.93;;;3.60;99.90;;;;;;4938156;29;20468;-81
2021/11/21 09:02:53;;;;;;;8.82;5.30;;;3.60;99.90;;;;;;4953498;29;20518;-78
2021/11/21 09:05:23;;;;;;;8.93;5.47;;;3.60;99.90;;;;;;4953759;28;20079;-79
2021/11/21 09:07:50;;;;;;;9.63;5.07;;;3.70;99.90;;;;;;4952761;29;20051;-80
2021/11/21 09:10:21;;;;;;;8.30;5.18;;;3.70;99.90;;;;;;4948320;28;20039;-78
2021/11/21 09:12:49;;;;;;;9.82;5.35;;;3.70;99.90;;;;;;4949878;29;20058;-79
2021/11/21 09:15:21;;;;;;;7.93;4.78;;;3.70;99.90;;;;;;4952043;29;20136;-79
2021/11/21 09:17:51;;;;;;;8.80;5.32;;;3.70;99.90;;;;;;4950755;29;20512;-81
2021/11/21 09:20:20;;;;;;;7.63;4.90;;;3.70;99.90;;;;;;4953825;29;20058;-79
2021/11/21 09:22:48;;;;;;;9.05;5.43;;;3.80;99.90;;;;;;4951697;29;20051;-79
2021/11/21 09:25:16;;;;;;;9.32;5.65;;;3.80;99.90;;;;;;4952566;29;20055;-80
2021/11/21 09:27:44;;;;;;;9.77;5.75;;;3.80;99.90;;;;;;4948740;29;20138;-78
2021/11/21 09:30:13;;;;;;;9.73;5.38;;;3.80;99.90;;;;;;4952938;29;20058;-78
2021/11/21 09:32:41;;;;;;;9.35;5.13;;;3.80;99.90;;;;;;4945285;29;20521;-79
2021/11/21 09:35:09;;;;;;;9.75;5.70;;;3.80;99.90;;;;;;4949930;29;20051;-78
2021/11/21 09:37:37;;;;;;;9.02;4.82;;;3.80;99.90;;;;;;4949555;29;20500;-79
2021/11/21 09:40:07;;;;;;;9.95;5.72;;;3.80;99.90;;;;;;4946679;28;20501;-79
2021/11/21 09:42:35;;;;;;;10.38;5.65;;;3.80;99.90;;;;;;4944919;28;20051;-78
2021/11/21 09:45:06;;;;;;;9.85;5.50;;;3.80;99.90;;;;;;4949503;28;20108;-77
2021/11/21 09:47:34;;;;;;;10.30;5.13;;;3.90;99.90;;;;;;4942470;29;20067;-77
2021/11/21 09:50:02;;;;;;;10.48;5.50;;;3.90;99.90;;;;;;4953749;29;20130;-78
2021/11/21 09:52:30;;;;;;;9.93;5.22;;;3.90;99.90;;;;;;4941732;28;20048;-78
2021/11/21 09:54:58;;;;;;;9.88;5.38;;;3.90;99.90;;;;;;4937998;29;20044;-77
2021/11/21 09:57:26;;;;;;;10.63;5.35;;;3.90;99.90;;;;;;4949133;28;20513;-77
2021/11/21 09:59:59;;;;;;;10.63;4.80;;;3.90;99.90;;;;;;4956173;28;20051;-77
2021/11/21 10:02:31;;;;;;;9.07;5.10;;;3.90;99.90;;;;;;4956696;29;20055;-78
2021/11/21 10:04:59;;;;;;;10.32;5.13;;;3.80;99.90;;;;;;4954752;28;20051;-80
2021/11/21 10:07:29;;;;;;;10.32;5.22;;;3.80;99.90;;;;;;4950939;29;20047;-79
2021/11/21 10:09:59;;;;;;;9.02;5.03;;;3.80;99.90;;;;;;4956750;29;20134;-79
2021/11/21 10:12:36;;;;;;;10.73;5.82;;;3.80;99.90;;;;;;4950914;29;20133;-76
2021/11/21 10:15:07;;;;;;;11.13;5.28;;;3.80;99.90;;;;;;4953589;29;20110;-80
2021/11/21 10:17:38;;;;;;;11.55;5.07;;;3.80;99.90;;;;;;4955631;29;20166;-78
2021/11/21 10:20:18;;;;;;;11.40;5.13;;;3.80;99.90;;;;;;4937677;29;20048;-78
2021/11/21 10:22:58;;;;;;;11.10;5.40;;;3.80;99.90;;;;;;4940434;29;20039;-78
2021/11/21 10:25:55;;;;;;;13.60;6.22;;;3.90;99.90;;;;;;4955975;29;20122;-78
2021/11/21 10:28:31;;;;;;;12.65;5.20;;;3.90;99.90;;;;;;4953638;29;20122;-80
2021/11/21 10:31:12;;;;;;;11.27;5.22;;;3.90;99.90;;;;;;4955426;29;20120;-75
2021/11/21 10:33:44;;;;;;;11.63;5.63;;;3.90;99.90;;;;;;4946957;29;20781;-77
2021/11/21 10:36:16;;;;;;;11.60;5.85;;;3.80;99.90;;;;;;4938015;29;20071;-78
2021/11/21 10:38:49;;;;;;;11.38;5.90;;;3.80;99.90;;;;;;4954063;28;20047;-77
2021/11/21 10:41:23;;;;;;;13.60;5.55;;;3.80;99.90;;;;;;4944990;28;20560;-78
2021/11/21 10:44:01;;;;;;;11.43;5.35;;;3.80;99.90;;;;;;4956186;28;20054;-78
2021/11/21 10:46:35;;;;;;;13.50;6.07;;;3.90;99.90;;;;;;4937320;29;20516;-78
2021/11/21 10:49:28;;;;;;;12.35;5.72;;;3.90;99.90;;;;;;4937029;29;20438;-79
2021/11/21 10:52:13;;;;;;;10.82;5.28;;;3.90;99.90;;;;;;4951814;29;20039;-78
2021/11/21 10:54:45;;;;;;;12.00;6.50;;;4.00;99.90;;;;;;4954635;29;20047;-79
2021/11/21 10:57:17;;;;;;;12.38;6.25;;;4.00;99.90;;;;;;4949216;29;20063;-79
2021/11/21 10:59:51;;;;;;;13.38;6.50;;;4.00;99.90;;;;;;4948629;29;21686;-80
2021/11/21 11:02:26;;;;;;;13.07;7.07;;;4.10;99.90;;;;;;4951972;28;20448;-80
2021/11/21 11:05:06;;;;;;;13.73;7.38;;;4.10;99.90;;;;;;4955123;28;20136;-81
2021/11/21 11:07:37;;;;;;;13.73;7.53;;;4.10;99.90;;;;;;4944147;29;20047;-80
2021/11/21 11:10:09;;;;;;;14.52;7.05;;;4.10;99.90;;;;;;4949146;28;20433;-81
2021/11/21 11:12:36;;;;;;;15.80;7.75;;;4.10;99.90;;;;;;4943304;28;20127;-80
2021/11/21 11:15:05;;;;;;;14.65;7.60;;;4.10;99.90;;;;;;4941261;29;20043;-78
2021/11/21 11:17:32;;;;;;;15.45;7.38;;;4.10;99.90;;;;;;4936864;29;20051;-80
2021/11/21 11:20:04;;;;;;;15.02;8.15;;;4.20;99.90;;;;;;4936682;29;20098;-79
2021/11/21 11:22:31;;;;;;;15.02;8.02;;;4.10;99.90;;;;;;4936637;29;20047;-83
2021/11/21 11:25:04;;;;;;;17.63;8.70;;;4.20;99.90;;;;;;4945776;29;20480;-80
2021/11/21 11:27:44;;;;;;;16.20;7.93;;;4.20;99.90;;;;;;4955426;28;20055;-79
2021/11/21 11:30:13;;;;;;;16.60;8.43;;;4.20;99.90;;;;;;4942927;29;20059;-80
2021/11/21 11:32:42;;;;;;;15.77;7.82;;;4.20;99.90;;;;;;4955398;29;20133;-78
2021/11/21 11:35:33;;;;;;;15.68;7.70;;;4.20;99.90;;;;;;4954572;29;20043;-77
2021/11/21 11:38:14;;;;;;;17.00;8.00;;;4.20;99.90;;;;;;4941088;28;20070;-78
2021/11/21 11:40:54;;;;;;;15.65;7.72;;;4.30;99.90;;;;;;4936083;29;20078;-78
2021/11/21 11:43:43;;;;;;;14.77;7.82;;;4.30;99.90;;;;;;4936044;29;20051;-79
2021/11/21 11:46:30;;;;;;;15.35;7.45;;;4.40;99.90;;;;;;4946802;29;20584;-79
2021/11/21 11:49:00;;;;;;;16.77;8.30;;;4.40;99.90;;;;;;4938904;29;20039;-79
2021/11/21 11:51:54;;;;;;;17.40;8.27;;;4.50;99.90;;;;;;4953212;29;20055;-80
2021/11/21 11:54:29;;;;;;;18.98;8.70;;;4.60;99.90;;;;;;4947891;28;20111;-77
2021/11/21 11:57:00;;;;;;;15.80;8.20;;;4.60;99.90;;;;;;4935718;29;20054;-77
2021/11/21 11:59:38;;;;;;;15.77;7.47;;;4.70;99.90;;;;;;4935719;29;20047;-79
2021/11/21 12:02:09;;;;;;;16.33;7.78;;;4.70;99.90;;;;;;4935724;29;20059;-79
2021/11/21 12:04:58;;;;;;;15.07;7.72;;;4.80;99.90;;;;;;4943893;29;20172;-77
2021/11/21 12:07:31;;;;;;;17.13;8.25;;;4.80;99.90;;;;;;4954067;29;20047;-77
2021/11/21 12:10:02;;;;;;;17.48;7.55;;;4.80;99.90;;;;;;4952805;29;20057;-78
2021/11/21 12:13:02;;;;;;;16.92;7.78;;;4.90;99.90;;;;;;4954727;29;20081;-79
2021/11/21 12:15:37;;;;;;;14.77;7.60;;;4.90;99.90;;;;;;4956942;28;20094;-77
2021/11/21 12:18:05;;;;;;;;;;;5.00;99.90;;;;;;4973868;28;20133;-74
2021/11/21 12:20:47;;;;;;;14.30;7.25;;;5.00;99.90;;;;;;4973596;28;20000;-74
2021/11/21 12:23:58;;;;;;;17.23;8.23;;;5.00;99.90;;;;;;4973498;28;20141;-74
2021/11/21 12:26:35;;;;;;;15.88;7.93;;;5.10;99.90;;;;;;4962027;28;20070;-78
2021/11/21 12:29:10;;;;;;;17.17;8.30;;;5.10;99.90;;;;;;4973326;28;20121;-79
2021/11/21 12:31:39;;;;;;;18.65;8.52;;;5.10;99.90;;;;;;4973141;28;20138;-78
2021/11/21 12:34:38;;;;;;;16.92;7.63;;;5.10;99.90;;;;;;4973423;28;20149;-79
2021/11/21 12:37:14;;;;;;;16.00;7.55;;;5.10;99.90;;;;;;4964279;28;20512;-80
2021/11/21 12:39:48;;;;;;;16.48;7.93;;;5.20;99.90;;;;;;4973756;28;20133;-79
2021/11/21 12:42:19;;;;;;;17.27;7.80;;;5.20;99.90;;;;;;4972899;28;20480;-78
2021/11/21 12:44:46;;;;;;;17.95;8.43;;;5.20;99.90;;;;;;4972740;28;20141;-79
2021/11/21 12:47:15;;;;;;;17.90;8.27;;;5.20;99.90;;;;;;4955868;28;20043;-84
2021/11/21 12:49:44;;;;;;;18.30;8.63;;;5.20;99.90;;;;;;4971453;28;20133;-78
2021/11/21 12:52:15;;;;;;;16.55;8.18;;;5.20;99.90;;;;;;4973221;28;20133;-78
2021/11/21 12:54:44;;;;;;;16.95;8.20;;;5.30;99.90;;;;;;4973110;28;20453;-79
2021/11/21 12:57:14;;;;;;;15.43;7.82;;;5.30;99.90;;;;;;4973241;28;20053;-77
2021/11/21 12:59:49;;;;;;;15.43;7.82;;;5.30;99.90;;;;;;4972554;28;20126;-77
2021/11/21 13:02:20;;;;;;;15.88;7.40;;;5.30;99.90;;;;;;4972959;28;20575;-80
2021/11/21 13:04:50;;;;;;;16.88;7.72;;;5.30;99.90;;;;;;4973243;28;20053;-79
2021/11/21 13:07:25;;;;;;;17.92;8.40;;;5.40;99.90;;;;;;4972786;28;20130;-79
2021/11/21 13:10:09;;;;;;;14.15;7.45;;;5.40;99.90;;;;;;4971374;28;20043;-81
2021/11/21 13:12:39;;;;;;;16.35;7.90;;;5.40;99.90;;;;;;4953719;29;20043;-78
2021/11/21 13:15:12;;;;;;;16.55;8.68;;;5.40;99.90;;;;;;4967040;28;20150;-80
2021/11/21 13:17:40;;;;;;;16.17;8.10;;;5.40;99.90;;;;;;4959166;28;20049;-77
2021/11/21 13:20:17;;;;;;;17.27;9.20;;;5.40;99.90;;;;;;4959739;28;20046;-78
2021/11/21 13:22:55;;;;;;;18.83;10.10;;;5.40;99.90;;;;;;4967355;28;20224;-79
2021/11/21 13:25:45;;;;;;;17.30;9.13;;;5.40;99.90;;;;;;4971531;28;20054;-78
2021/11/21 13:28:39;;;;;;;14.85;8.07;;;5.30;99.90;;;;;;4961566;28;20114;-78
2021/11/21 13:31:12;;;;;;;17.15;8.95;;;5.30;99.90;;;;;;4954248;28;20090;-78
2021/11/21 13:33:42;;;;;;;17.55;8.65;;;5.30;99.90;;;;;;4976693;28;20133;-78
2021/11/21 13:36:18;;;;;;;17.80;8.48;;;5.40;99.90;;;;;;4976162;28;20502;-77
2021/11/21 13:38:48;;;;;;;17.23;8.90;;;5.40;99.90;;;;;;4975796;28;20047;-79
2021/11/21 13:41:21;;;;;;;16.42;8.65;;;5.30;99.90;;;;;;4974971;28;20043;-79
2021/11/21 13:43:50;;;;;;;17.23;9.25;;;5.30;99.90;;;;;;4974891;28;20046;-79
2021/11/21 13:46:21;;;;;;;16.85;8.05;;;5.30;99.90;;;;;;4975480;28;20039;-79
2021/11/21 13:48:49;;;;;;;17.42;8.18;;;5.30;99.90;;;;;;4974622;28;20138;-78
2021/11/21 13:51:32;;;;;;;20.27;10.05;;;5.30;99.90;;;;;;4972027;28;20130;-78
2021/11/21 13:54:02;;;;;;;20.52;9.60;;;5.30;99.90;;;;;;4976011;28;20047;-79
2021/11/21 13:56:31;;;;;;;20.52;10.23;;;5.30;99.90;;;;;;4973765;28;20488;-79
2021/11/21 13:59:14;;;;;;;22.63;10.63;;;5.30;99.90;;;;;;4970602;28;20129;-79
2021/11/21 14:01:49;;;;;;;21.00;10.52;;;5.30;99.90;;;;;;4972155;28;20050;-76
2021/11/21 14:04:17;;;;;;;30.85;17.23;;;5.30;99.90;;;;;;4970373;28;20150;-77
2021/11/21 14:06:45;;;;;;;24.50;12.63;;;5.40;99.90;;;;;;4972447;28;20173;-77
2021/11/21 14:09:16;;;;;;;20.63;10.32;;;5.40;99.90;;;;;;4972598;28;20488;-77
2021/11/21 14:11:45;;;;;;;18.60;9.45;;;5.40;99.90;;;;;;4973241;28;20500;-77
2021/11/21 14:14:15;;;;;;;19.27;9.13;;;5.40;99.90;;;;;;4971436;28;20050;-78
2021/11/21 14:16:49;;;;;;;18.63;8.85;;;5.40;99.90;;;;;;4974361;28;20074;-79
2021/11/21 14:19:28;;;;;;;16.08;7.82;;;5.40;99.90;;;;;;4972526;28;20065;-79
2021/11/21 14:22:11;;;;;;;16.75;8.57;;;5.40;99.90;;;;;;4972748;28;20522;-79
2021/11/21 14:24:40;;;;;;;19.17;9.00;;;5.40;99.90;;;;;;4971869;28;20055;-76
2021/11/21 14:27:15;;;;;;;15.63;7.88;;;5.40;99.90;;;;;;4971613;28;20133;-79
2021/11/21 14:29:49;;;;;;;14.27;7.25;;;5.40;99.90;;;;;;4971974;28;20046;-78
2021/11/21 14:32:17;;;;;;;17.55;9.00;;;5.40;99.90;;;;;;4956175;28;20138;-78
2021/11/21 14:34:44;;;;;;;17.67;8.82;;;5.40;99.90;;;;;;4971075;28;20066;-78
2021/11/21 14:37:16;;;;;;;18.25;9.15;;;5.40;99.90;;;;;;4971369;28;20047;-78
2021/11/21 14:39:45;;;;;;;19.73;11.18;;;5.40;99.90;;;;;;4970407;28;20052;-78
2021/11/21 14:42:15;;;;;;;19.75;9.82;;;5.40;99.90;;;;;;4970567;28;20046;-78
2021/11/21 14:44:44;;;;;;;16.20;8.38;;;5.40;99.90;;;;;;4970957;28;20054;-78
2021/11/21 14:47:16;;;;;;;19.10;9.80;;;5.30;99.90;;;;;;4970885;28;20042;-77
2021/11/21 14:49:45;;;;;;;22.25;10.82;;;5.30;99.90;;;;;;4971371;28;20046;-77
2021/11/21 14:52:16;;;;;;;19.80;9.90;;;5.30;99.90;;;;;;4970919;28;20050;-78
2021/11/21 14:54:43;;;;;;;21.33;9.93;;;5.40;99.90;;;;;;4971184;28;20058;-78
2021/11/21 14:57:15;;;;;;;19.38;9.65;;;5.30;99.90;;;;;;4971120;28;20047;-78
2021/11/21 14:59:43;;;;;;;18.70;9.88;;;5.30;99.90;;;;;;4970968;28;20146;-79
2021/11/21 15:02:12;;;;;;;18.05;8.77;;;5.30;99.90;;;;;;4970450;28;20094;-77
2021/11/21 15:04:40;;;;;;;19.27;9.25;;;5.30;99.90;;;;;;4970028;28;20081;-81
2021/11/21 15:07:08;;;;;;;18.10;9.32;;;5.30;99.90;;;;;;4970570;28;20051;-78
2021/11/21 15:09:35;;;;;;;17.95;9.05;;;5.30;99.90;;;;;;4970777;28;20142;-81
2021/11/21 15:12:03;;;;;;;17.90;8.85;;;5.30;99.90;;;;;;4970728;28;20197;-80
2021/11/21 15:14:32;;;;;;;20.30;8.90;;;5.30;99.90;;;;;;4969574;28;20539;-79
2021/11/21 15:16:59;;;;;;;17.58;8.93;;;5.30;99.90;;;;;;4970898;28;20062;-78
2021/11/21 15:19:26;;;;;;;15.88;8.43;;;5.30;99.90;;;;;;4970169;28;20419;-81
2021/11/21 15:21:53;;;;;;;18.10;8.63;;;5.30;99.90;;;;;;4970240;28;20082;-78
2021/11/21 15:24:21;;;;;;;16.35;8.35;;;5.30;99.90;;;;;;4970897;28;20138;-79
2021/11/21 15:26:49;;;;;;;16.05;8.40;;;5.40;99.90;;;;;;4970160;28;20077;-77
2021/11/21 15:29:17;;;;;;;18.77;9.57;;;5.30;99.90;;;;;;4970043;28;20054;-80
2021/11/21 15:31:47;;;;;;;17.98;8.80;;;5.30;99.90;;;;;;4970342;28;20078;-80
2021/11/21 15:34:16;;;;;;;16.40;8.60;;;5.30;99.90;;;;;;4969926;28;20054;-79
2021/11/21 15:36:44;;;;;;;18.33;9.32;;;5.30;99.90;;;;;;4969988;28;20047;-79
2021/11/21 15:39:11;;;;;;;18.83;8.95;;;5.40;99.90;;;;;;4969629;28;20055;-77
2021/11/21 15:41:38;;;;;;;18.80;8.93;;;5.40;99.90;;;;;;4969149;28;20138;-74
2021/11/21 15:44:06;;;;;;;19.15;9.52;;;5.30;99.90;;;;;;4970567;28;20055;-80
2021/11/21 15:46:34;;;;;;;21.02;10.68;;;5.30;99.90;;;;;;4966169;28;20591;-78
2021/11/21 15:49:02;;;;;;;18.90;9.20;;;5.30;99.90;;;;;;4969119;28;20086;-79
2021/11/21 15:51:29;;;;;;;17.10;8.43;;;5.30;99.90;;;;;;4970136;28;20047;-81
2021/11/21 15:53:56;;;;;;;20.45;9.13;;;5.30;99.90;;;;;;4970030;28;20145;-79
2021/11/21 15:56:25;;;;;;;18.73;8.80;;;5.40;99.90;;;;;;4969833;28;20082;-77
2021/11/21 15:58:53;;;;;;;18.23;8.68;;;5.40;99.90;;;;;;4968298;28;20054;-76
2021/11/21 16:01:22;;;;;;;14.82;8.40;;;5.50;99.90;;;;;;4968370;28;20082;-78
2021/11/21 16:03:49;;;;;;;15.32;8.25;;;5.40;99.90;;;;;;4968667;28;20046;-77
2021/11/21 16:06:18;;;;;;;16.98;7.68;;;5.50;99.90;;;;;;4968894;28;20055;-77
2021/11/21 16:08:45;;;;;;;14.75;7.80;;;5.50;99.90;;;;;;4969792;28;20086;-77
2021/11/21 16:11:14;;;;;;;16.08;8.18;;;5.40;99.90;;;;;;4969623;28;20193;-78
2021/11/21 16:13:42;;;;;;;13.80;7.10;;;5.40;99.90;;;;;;4970035;28;20089;-79
2021/11/21 16:16:09;;;;;;;13.75;7.15;;;5.40;99.90;;;;;;4970053;28;20683;-78
2021/11/21 16:18:38;;;;;;;13.15;7.05;;;5.40;99.90;;;;;;4959547;28;20059;-77
2021/11/21 16:21:05;;;;;;;15.25;7.57;;;5.40;99.90;;;;;;4969545;28;20826;-77
2021/11/21 16:23:34;;;;;;;15.68;8.25;;;5.40;99.90;;;;;;4969697;28;20918;-77
2021/11/21 16:26:01;;;;;;;15.57;7.60;;;5.40;99.90;;;;;;4969303;28;20461;-77
2021/11/21 16:28:28;;;;;;;13.50;7.32;;;5.40;99.90;;;;;;4969621;28;20047;-79
2021/11/21 16:30:55;;;;;;;16.70;7.75;;;5.40;99.90;;;;;;4965843;28;20468;-77
2021/11/21 16:33:22;;;;;;;14.27;7.75;;;5.40;99.90;;;;;;4969843;28;20055;-79
2021/11/21 16:35:49;;;;;;;17.02;8.88;;;5.40;99.90;;;;;;4969266;28;20053;-79
2021/11/21 16:38:16;;;;;;;14.65;7.75;;;5.40;99.90;;;;;;4969680;28;20065;-78
2021/11/21 16:40:48;;;;;;;16.50;7.78;;;5.40;99.90;;;;;;4969580;28;20046;-77
2021/11/21 16:43:17;;;;;;;14.32;7.13;;;5.40;99.90;;;;;;4953040;28;20058;-81
2021/11/21 16:45:44;;;;;;;17.00;7.78;;;5.40;99.90;;;;;;4969124;28;20058;-80
2021/11/21 16:48:11;;;;;;;15.50;8.02;;;5.40;99.90;;;;;;4969338;28;20057;-79
2021/11/21 16:50:38;;;;;;;13.98;8.00;;;5.40;99.90;;;;;;4969388;28;20057;-76
2021/11/21 16:53:08;;;;;;;15.30;7.90;;;5.40;99.90;;;;;;4969227;28;20078;-76
2021/11/21 16:55:36;;;;;;;14.35;7.82;;;5.40;99.90;;;;;;4969254;28;20055;-79
2021/11/21 16:58:05;;;;;;;15.40;8.38;;;5.40;99.90;;;;;;4964475;28;20127;-80
2021/11/21 17:00:32;;;;;;;15.65;8.77;;;5.40;99.90;;;;;;4959690;28;20378;-80
2021/11/21 17:02:59;;;;;;;13.43;8.23;;;5.40;99.90;;;;;;4968413;28;20050;-78
2021/11/21 17:05:27;;;;;;;15.00;7.93;;;5.40;99.90;;;;;;4968942;28;20519;-78
2021/11/21 17:07:54;;;;;;;16.17;8.48;;;5.40;99.90;;;;;;4966503;28;20046;-76
2021/11/21 17:10:21;;;;;;;15.73;8.73;;;5.40;99.90;;;;;;4951167;28;20089;-78
2021/11/21 17:12:48;;;;;;;13.75;8.10;;;5.40;99.90;;;;;;4953272;28;20069;-78
2021/11/21 17:15:18;;;;;;;15.52;8.00;;;5.40;99.90;;;;;;4950532;28;20427;-77
2021/11/21 17:17:46;;;;;;;15.75;8.95;;;5.50;99.90;;;;;;4966438;28;20551;-79
2021/11/21 17:20:13;;;;;;;15.32;8.20;;;5.40;99.90;;;;;;4952154;28;20086;-76
2021/11/21 17:22:41;;;;;;;14.30;7.72;;;5.40;99.90;;;;;;4950345;28;20915;-78
2021/11/21 17:25:11;;;;;;;16.20;7.72;;;5.40;99.90;;;;;;4950967;28;20055;-78
2021/11/21 17:27:40;;;;;;;17.33;8.52;;;5.40;99.90;;;;;;4949465;29;20540;-80
2021/11/21 17:30:08;;;;;;;16.23;8.00;;;5.40;99.90;;;;;;4949953;28;20062;-78
2021/11/21 17:32:37;;;;;;;15.80;8.77;;;5.40;99.90;;;;;;4949702;29;20055;-78
2021/11/21 17:35:05;;;;;;;14.45;7.95;;;5.40;99.90;;;;;;4958658;28;20147;-79
2021/11/21 17:37:36;;;;;;;16.58;8.43;;;5.50;99.90;;;;;;4968867;28;20046;-81
2021/11/21 17:40:05;;;;;;;15.75;8.32;;;5.40;99.90;;;;;;4960128;28;20432;-78
2021/11/21 17:42:32;;;;;;;18.48;9.35;;;5.40;99.90;;;;;;4968165;28;20057;-77
2021/11/21 17:44:59;;;;;;;17.00;9.13;;;5.40;99.90;;;;;;4968551;28;20051;-77
2021/11/21 17:47:26;;;;;;;16.30;9.20;;;5.40;99.90;;;;;;4968970;28;20094;-78
2021/11/21 17:49:55;;;;;;;15.75;8.63;;;5.40;99.90;;;;;;4969206;28;20054;-77
2021/11/21 17:52:22;;;;;;;16.30;8.65;;;5.30;99.90;;;;;;4968970;28;20138;-79
2021/11/21 17:54:50;;;;;;;16.27;8.75;;;5.30;99.90;;;;;;4969138;28;20064;-78
2021/11/21 17:57:17;;;;;;;31.60;16.02;;;5.40;99.90;;;;;;4968996;28;20047;-77
2021/11/21 17:59:44;;;;;;;25.13;13.32;;;5.30;99.90;;;;;;4969025;28;20051;-79
2021/11/21 18:02:11;;;;;;;21.02;10.98;;;5.40;99.90;;;;;;4968464;28;20097;-78
2021/11/21 18:04:38;;;;;;;18.55;9.93;;;5.40;99.90;;;;;;4967884;28;20133;-79
2021/11/21 18:07:07;;;;;;;16.15;8.90;;;5.40;99.90;;;;;;4968070;28;20049;-76
2021/11/21 18:09:34;;;;;;;17.65;10.05;;;5.40;99.90;;;;;;4969068;28;20057;-76
2021/11/21 18:12:01;;;;;;;15.45;8.90;;;5.40;99.90;;;;;;4968869;28;20396;-77
2021/11/21 18:14:29;;;;;;;16.30;8.82;;;5.40;99.90;;;;;;4961927;28;20125;-77
2021/11/21 18:16:56;;;;;;;18.45;9.90;;;5.40;99.90;;;;;;4972657;28;20436;-80
2021/11/21 18:19:23;;;;;;;16.98;9.20;;;5.40;99.90;;;;;;4971757;28;20065;-80
2021/11/21 18:21:50;;;;;;;16.98;9.02;;;5.40;99.90;;;;;;4962301;28;20142;-80
2021/11/21 18:24:19;;;;;;;16.70;8.98;;;5.40;99.90;;;;;;4936185;28;20396;-80
2021/11/21 18:26:46;;;;;;;15.52;8.50;;;5.40;99.90;;;;;;4955724;28;20113;-81
2021/11/21 18:29:13;;;;;;;16.55;8.75;;;5.40;99.90;;;;;;4952558;29;20138;-80
2021/11/21 18:31:40;;;;;;;16.98;8.57;;;5.30;99.90;;;;;;4960864;28;20513;-78
2021/11/21 18:34:07;;;;;;;16.00;8.82;;;5.30;99.90;;;;;;4970903;28;20051;-78
2021/11/21 18:36:35;;;;;;;13.90;8.23;;;5.30;99.90;;;;;;4971297;28;20134;-79
2021/11/21 18:39:03;;;;;;;16.27;9.48;;;5.30;99.90;;;;;;4971689;28;20074;-79
2021/11/21 18:41:32;;;;;;;15.95;8.63;;;5.40;99.90;;;;;;4970154;28;20046;-78
2021/11/21 18:43:59;;;;;;;15.82;8.60;;;5.30;99.90;;;;;;4971487;28;20108;-79
2021/11/21 18:46:28;;;;;;;15.85;9.20;;;5.40;99.90;;;;;;4970741;28;20053;-79
2021/11/21 18:48:55;;;;;;;18.58;9.60;;;5.30;99.90;;;;;;4967070;28;20043;-80
2021/11/21 18:51:23;;;;;;;22.20;12.02;;;5.40;99.90;;;;;;4940135;28;20138;-81
2021/11/21 18:53:50;;;;;;;23.85;13.30;;;5.40;99.90;;;;;;4952710;28;20043;-78
2021/11/21 18:56:21;;;;;;;23.38;13.07;;;5.40;99.90;;;;;;4952382;28;20051;-80
2021/11/21 18:58:53;;;;;;;18.13;9.95;;;5.40;99.90;;;;;;4951823;29;20462;-79
2021/11/21 19:01:23;;;;;;;17.02;8.85;;;5.40;99.90;;;;;;4969322;28;20154;-79
2021/11/21 19:03:51;;;;;;;15.55;7.82;;;5.30;99.90;;;;;;4956402;28;20085;-82